createdAt,value
2022-07-29T00:07:22.509Z,61
2022-07-29T00:47:24.202Z,64
2022-07-29T00:57:25.088Z,65
2022-07-29T01:07:25.865Z,65
2022-07-29T01:37:27.915Z,67
2022-07-29T01:47:28.076Z,68
2022-07-29T01:57:28.948Z,68
2022-07-29T02:07:29.477Z,69
2022-07-29T02:17:30.436Z,69
2022-07-29T02:27:30.687Z,69
2022-07-29T02:37:31.354Z,69
2022-07-29T02:47:32.101Z,70
2022-07-29T02:57:33.075Z,69
2022-07-29T03:07:33.888Z,69
2022-07-29T03:27:34.716Z,70
2022-07-29T03:47:49.565Z,69
2022-07-29T03:57:36.608Z,69
2022-07-29T04:07:37.254Z,69
2022-07-29T04:17:37.617Z,69
2022-07-29T04:27:37.782Z,69
2022-07-29T04:37:38.418Z,69
2022-07-29T04:47:39.089Z,70
2022-07-29T04:57:39.970Z,70
2022-07-29T05:07:40.703Z,70
2022-07-29T05:17:41.120Z,74
2022-07-29T05:37:42.184Z,78
2022-07-29T05:57:42.799Z,79
2022-07-29T06:47:45.172Z,79
2022-07-29T07:37:48.233Z,82
2022-07-29T07:47:49.096Z,81
2022-07-29T07:57:49.772Z,79
2022-07-29T08:07:50.580Z,78
2022-07-29T08:17:51.152Z,76
2022-07-29T08:27:52.037Z,75
2022-07-29T08:37:53.014Z,74
2022-07-29T08:47:53.468Z,74
2022-07-29T09:07:54.843Z,74
2022-07-29T09:17:55.187Z,75
2022-07-29T09:37:55.438Z,78
2022-07-29T09:47:56.457Z,81
2022-07-29T09:57:57.521Z,81
2022-07-29T10:07:58.172Z,83
2022-07-29T10:17:58.686Z,82
2022-07-29T10:27:58.824Z,83
2022-07-29T10:47:59.951Z,86
2022-07-29T11:08:02.273Z,86
2022-07-29T11:18:01.545Z,84
2022-07-29T11:28:02.530Z,82
2022-07-29T11:38:03.022Z,83
2022-07-29T11:48:28.288Z,82
2022-07-29T11:58:04.553Z,83
2022-07-29T12:08:04.222Z,80
2022-07-29T12:48:06.515Z,60
2022-07-29T13:18:08.451Z,58
2022-07-29T13:28:09.429Z,59
2022-07-29T13:58:11.699Z,60
2022-07-29T14:08:11.864Z,59
2022-07-29T14:18:12.008Z,59
2022-07-29T14:28:12.575Z,58
2022-07-29T14:38:13.052Z,55
2022-07-29T15:08:14.654Z,53
2022-07-29T15:18:15.243Z,56
2022-07-29T15:28:15.710Z,57
2022-07-29T15:38:16.212Z,57
2022-07-29T15:48:17.152Z,55
2022-07-29T15:58:18.157Z,54
2022-07-29T16:08:18.883Z,54
2022-07-29T16:18:19.604Z,54
2022-07-29T16:28:20.446Z,52
2022-07-29T16:48:20.894Z,52
2022-07-29T16:58:21.298Z,52
2022-07-29T17:08:21.717Z,53
2022-07-29T17:28:23.114Z,55
2022-07-29T17:38:23.676Z,56
2022-07-29T17:48:24.459Z,56
2022-07-29T17:58:25.211Z,56
2022-07-29T19:08:29.332Z,66
2022-07-29T19:18:29.635Z,68
2022-07-29T19:28:30.054Z,70
2022-07-29T19:38:30.202Z,71
2022-07-29T19:48:31.091Z,72
2022-07-29T19:58:31.805Z,73
2022-07-29T20:08:32.285Z,75
2022-07-29T20:18:32.916Z,76
2022-07-29T20:28:33.686Z,77
2022-07-29T20:38:34.018Z,79
2022-07-29T20:48:34.239Z,79
2022-07-29T20:58:35.233Z,79
2022-07-29T21:08:36.127Z,81
2022-07-29T21:18:37.123Z,83
2022-07-29T21:28:38.156Z,84
2022-07-29T21:38:38.912Z,85
2022-07-29T21:48:44.001Z,86
2022-07-29T21:58:40.334Z,87
2022-07-29T22:08:40.474Z,86
2022-07-29T22:28:41.836Z,86
2022-07-29T22:38:42.388Z,86
2022-07-29T22:48:43.366Z,87
2022-07-29T22:58:43.497Z,88
2022-07-29T23:08:44.170Z,89
2022-07-29T23:18:44.949Z,90
2022-07-29T23:38:46.534Z,93
2022-07-29T23:48:46.733Z,93
2022-07-29T23:58:47.652Z,93
